sensor_id;sensor_type;location;lat;lon;timestamp;P1;durP1;ratioP1;P2;durP2;ratioP2
11837;SDS011;5978;51.020;6.764;2022-11-15T00:02:09;14.33;;;11.13;;
11837;SDS011;5978;51.020;6.764;2022-11-15T00:04:35;16.83;;;12.27;;
11837;SDS011;5978;51.020;6.764;2022-11-15T00:07:00;14.90;;;11.40;;
11837;SDS011;5978;51.020;6.764;2022-11-15T00:09:26;18.07;;;11.97;;
11837;SDS011;5978;51.020;6.764;2022-11-15T00:11:52;16.20;;;11.13;;
11837;SDS011;5978;51.020;6.764;2022-11-15T00:14:17;21.50;;;12.33;;
11837;SDS011;5978;51.020;6.764;2022-11-15T00:16:43;17.70;;;12.30;;
11837;SDS011;5978;51.020;6.764;2022-11-15T00:19:08;20.77;;;12.27;;
11837;SDS011;5978;51.020;6.764;2022-11-15T00:21:34;15.80;;;12.17;;
11837;SDS011;5978;51.020;6.764;2022-11-15T00:24:00;18.43;;;11.13;;
11837;SDS011;5978;51.020;6.764;2022-11-15T00:26:25;22.83;;;13.33;;
11837;SDS011;5978;51.020;6.764;2022-11-15T00:28:54;17.90;;;11.70;;
11837;SDS011;5978;51.020;6.764;2022-11-15T00:31:19;19.55;;;12.32;;
11837;SDS011;5978;51.020;6.764;2022-11-15T00:33:45;19.83;;;12.27;;
11837;SDS011;5978;51.020;6.764;2022-11-15T00:36:10;22.50;;;11.53;;
11837;SDS011;5978;51.020;6.764;2022-11-15T00:38:37;26.13;;;12.67;;
11837;SDS011;5978;51.020;6.764;2022-11-15T00:41:04;15.52;;;11.55;;
11837;SDS011;5978;51.020;6.764;2022-11-15T00:43:31;18.38;;;11.70;;
11837;SDS011;5978;51.020;6.764;2022-11-15T00:45:57;18.20;;;11.52;;
11837;SDS011;5978;51.020;6.764;2022-11-15T00:48:22;17.20;;;12.00;;
11837;SDS011;5978;51.020;6.764;2022-11-15T00:50:48;17.70;;;11.70;;
11837;SDS011;5978;51.020;6.764;2022-11-15T00:53:14;17.83;;;11.83;;
11837;SDS011;5978;51.020;6.764;2022-11-15T00:55:40;16.93;;;11.20;;
11837;SDS011;5978;51.020;6.764;2022-11-15T00:58:06;14.67;;;10.53;;
11837;SDS011;5978;51.020;6.764;2022-11-15T01:00:32;18.80;;;12.47;;
11837;SDS011;5978;51.020;6.764;2022-11-15T01:02:57;16.47;;;11.47;;
11837;SDS011;5978;51.020;6.764;2022-11-15T01:05:23;19.23;;;11.70;;
11837;SDS011;5978;51.020;6.764;2022-11-15T01:07:52;15.17;;;11.00;;
11837;SDS011;5978;51.020;6.764;2022-11-15T01:10:19;24.20;;;11.50;;
11837;SDS011;5978;51.020;6.764;2022-11-15T01:12:44;18.33;;;11.80;;
11837;SDS011;5978;51.020;6.764;2022-11-15T01:15:10;14.07;;;11.97;;
11837;SDS011;5978;51.020;6.764;2022-11-15T01:17:35;14.53;;;11.50;;
11837;SDS011;5978;51.020;6.764;2022-11-15T01:20:01;17.17;;;11.40;;
11837;SDS011;5978;51.020;6.764;2022-11-15T01:22:27;16.67;;;11.27;;
11837;SDS011;5978;51.020;6.764;2022-11-15T01:24:53;14.47;;;11.87;;
11837;SDS011;5978;51.020;6.764;2022-11-15T01:27:18;16.10;;;12.00;;
11837;SDS011;5978;51.020;6.764;2022-11-15T01:29:44;15.70;;;10.80;;
11837;SDS011;5978;51.020;6.764;2022-11-15T01:32:09;14.90;;;9.57;;
11837;SDS011;5978;51.020;6.764;2022-11-15T01:43:26;15.57;;;10.40;;
11837;SDS011;5978;51.020;6.764;2022-11-15T01:45:58;17.10;;;10.70;;
11837;SDS011;5978;51.020;6.764;2022-11-15T01:48:42;13.20;;;11.00;;
11837;SDS011;5978;51.020;6.764;2022-11-15T01:51:09;18.93;;;9.80;;
11837;SDS011;5978;51.020;6.764;2022-11-15T01:53:38;16.53;;;10.77;;
11837;SDS011;5978;51.020;6.764;2022-11-15T01:56:07;15.83;;;11.10;;
11837;SDS011;5978;51.020;6.764;2022-11-15T01:58:35;16.97;;;10.43;;
11837;SDS011;5978;51.020;6.764;2022-11-15T02:01:02;17.15;;;11.50;;
11837;SDS011;5978;51.020;6.764;2022-11-15T02:03:31;15.20;;;11.47;;
11837;SDS011;5978;51.020;6.764;2022-11-15T02:06:11;18.90;;;11.53;;
11837;SDS011;5978;51.020;6.764;2022-11-15T02:08:36;15.97;;;11.00;;
11837;SDS011;5978;51.020;6.764;2022-11-15T02:11:04;19.27;;;12.17;;
11837;SDS011;5978;51.020;6.764;2022-11-15T02:13:33;15.70;;;11.53;;
11837;SDS011;5978;51.020;6.764;2022-11-15T02:16:23;12.40;;;10.40;;
11837;SDS011;5978;51.020;6.764;2022-11-15T02:21:51;15.25;;;11.07;;
11837;SDS011;5978;51.020;6.764;2022-11-15T02:35:57;20.90;;;12.60;;
11837;SDS011;5978;51.020;6.764;2022-11-15T02:41:20;20.83;;;10.33;;
11837;SDS011;5978;51.020;6.764;2022-11-15T02:44:00;14.33;;;12.00;;
11837;SDS011;5978;51.020;6.764;2022-11-15T02:46:48;20.27;;;11.77;;
11837;SDS011;5978;51.020;6.764;2022-11-15T02:49:39;19.57;;;11.73;;
11837;SDS011;5978;51.020;6.764;2022-11-15T02:52:08;12.87;;;10.37;;
11837;SDS011;5978;51.020;6.764;2022-11-15T02:54:34;23.10;;;12.60;;
11837;SDS011;5978;51.020;6.764;2022-11-15T02:57:07;16.00;;;10.60;;
11837;SDS011;5978;51.020;6.764;2022-11-15T03:05:20;16.70;;;11.17;;
11837;SDS011;5978;51.020;6.764;2022-11-15T03:08:08;20.73;;;10.93;;
11837;SDS011;5978;51.020;6.764;2022-11-15T03:10:56;16.20;;;10.97;;
11837;SDS011;5978;51.020;6.764;2022-11-15T03:13:40;17.83;;;12.10;;
11837;SDS011;5978;51.020;6.764;2022-11-15T03:18:56;19.93;;;11.63;;
11837;SDS011;5978;51.020;6.764;2022-11-15T03:21:39;13.87;;;10.73;;
11837;SDS011;5978;51.020;6.764;2022-11-15T03:24:06;18.20;;;10.70;;
11837;SDS011;5978;51.020;6.764;2022-11-15T03:26:34;14.97;;;11.03;;
11837;SDS011;5978;51.020;6.764;2022-11-15T03:29:04;16.73;;;11.73;;
11837;SDS011;5978;51.020;6.764;2022-11-15T03:31:37;13.37;;;10.33;;
11837;SDS011;5978;51.020;6.764;2022-11-15T03:34:12;17.67;;;12.90;;
11837;SDS011;5978;51.020;6.764;2022-11-15T03:36:59;15.27;;;10.33;;
11837;SDS011;5978;51.020;6.764;2022-11-15T03:39:25;13.63;;;9.83;;
11837;SDS011;5978;51.020;6.764;2022-11-15T03:47:45;13.47;;;10.30;;
11837;SDS011;5978;51.020;6.764;2022-11-15T03:50:35;14.50;;;9.90;;
11837;SDS011;5978;51.020;6.764;2022-11-15T03:53:01;19.07;;;10.67;;
11837;SDS011;5978;51.020;6.764;2022-11-15T03:55:27;14.23;;;10.80;;
11837;SDS011;5978;51.020;6.764;2022-11-15T03:57:54;10.73;;;9.40;;
11837;SDS011;5978;51.020;6.764;2022-11-15T04:00:22;13.90;;;10.50;;
11837;SDS011;5978;51.020;6.764;2022-11-15T04:02:48;17.90;;;10.60;;
11837;SDS011;5978;51.020;6.764;2022-11-15T04:05:14;12.17;;;10.43;;
11837;SDS011;5978;51.020;6.764;2022-11-15T04:07:39;12.30;;;8.70;;
11837;SDS011;5978;51.020;6.764;2022-11-15T04:10:05;14.60;;;10.03;;
11837;SDS011;5978;51.020;6.764;2022-11-15T04:12:32;12.77;;;10.20;;
11837;SDS011;5978;51.020;6.764;2022-11-15T04:15:00;15.60;;;10.20;;
11837;SDS011;5978;51.020;6.764;2022-11-15T04:17:37;13.70;;;10.30;;
11837;SDS011;5978;51.020;6.764;2022-11-15T04:20:09;13.03;;;9.87;;
11837;SDS011;5978;51.020;6.764;2022-11-15T04:22:56;12.40;;;9.63;;
11837;SDS011;5978;51.020;6.764;2022-11-15T04:25:41;13.10;;;9.00;;
11837;SDS011;5978;51.020;6.764;2022-11-15T04:28:07;16.00;;;9.70;;
11837;SDS011;5978;51.020;6.764;2022-11-15T04:30:32;14.57;;;10.13;;
11837;SDS011;5978;51.020;6.764;2022-11-15T04:32:58;11.67;;;9.20;;
11837;SDS011;5978;51.020;6.764;2022-11-15T04:35:24;12.70;;;9.60;;
11837;SDS011;5978;51.020;6.764;2022-11-15T04:37:50;14.00;;;8.60;;
11837;SDS011;5978;51.020;6.764;2022-11-15T04:40:15;12.50;;;10.40;;
11837;SDS011;5978;51.020;6.764;2022-11-15T04:42:41;10.87;;;8.70;;
11837;SDS011;5978;51.020;6.764;2022-11-15T04:45:07;12.43;;;8.70;;
11837;SDS011;5978;51.020;6.764;2022-11-15T04:47:34;14.73;;;9.07;;
11837;SDS011;5978;51.020;6.764;2022-11-15T04:49:59;12.33;;;8.90;;
11837;SDS011;5978;51.020;6.764;2022-11-15T04:52:25;13.23;;;9.67;;
11837;SDS011;5978;51.020;6.764;2022-11-15T04:54:50;12.60;;;8.33;;
11837;SDS011;5978;51.020;6.764;2022-11-15T04:57:16;12.10;;;9.73;;
11837;SDS011;5978;51.020;6.764;2022-11-15T04:59:42;10.07;;;8.90;;
11837;SDS011;5978;51.020;6.764;2022-11-15T05:02:08;10.77;;;8.30;;
11837;SDS011;5978;51.020;6.764;2022-11-15T05:04:34;12.07;;;8.87;;
11837;SDS011;5978;51.020;6.764;2022-11-15T05:06:59;12.10;;;9.50;;
11837;SDS011;5978;51.020;6.764;2022-11-15T05:09:25;14.10;;;8.70;;
11837;SDS011;5978;51.020;6.764;2022-11-15T05:11:51;10.70;;;8.67;;
11837;SDS011;5978;51.020;6.764;2022-11-15T05:14:16;12.57;;;9.50;;
11837;SDS011;5978;51.020;6.764;2022-11-15T05:16:42;12.70;;;8.20;;
11837;SDS011;5978;51.020;6.764;2022-11-15T05:19:08;18.43;;;9.17;;
11837;SDS011;5978;51.020;6.764;2022-11-15T05:21:34;14.50;;;8.87;;
11837;SDS011;5978;51.020;6.764;2022-11-15T05:24:00;11.90;;;10.03;;
11837;SDS011;5978;51.020;6.764;2022-11-15T05:26:26;11.40;;;8.10;;
11837;SDS011;5978;51.020;6.764;2022-11-15T05:28:56;13.07;;;8.33;;
11837;SDS011;5978;51.020;6.764;2022-11-15T05:31:23;11.97;;;9.17;;
11837;SDS011;5978;51.020;6.764;2022-11-15T05:33:50;15.93;;;9.37;;
11837;SDS011;5978;51.020;6.764;2022-11-15T05:39:00;13.83;;;8.60;;
11837;SDS011;5978;51.020;6.764;2022-11-15T05:41:37;11.80;;;7.87;;
11837;SDS011;5978;51.020;6.764;2022-11-15T05:44:10;12.83;;;8.70;;
11837;SDS011;5978;51.020;6.764;2022-11-15T05:46:38;11.33;;;8.43;;
11837;SDS011;5978;51.020;6.764;2022-11-15T05:49:06;14.83;;;9.20;;
11837;SDS011;5978;51.020;6.764;2022-11-15T05:51:34;11.27;;;8.30;;
11837;SDS011;5978;51.020;6.764;2022-11-15T05:53:59;15.10;;;9.87;;
11837;SDS011;5978;51.020;6.764;2022-11-15T05:56:26;9.50;;;7.30;;
11837;SDS011;5978;51.020;6.764;2022-11-15T05:58:53;10.37;;;8.30;;
11837;SDS011;5978;51.020;6.764;2022-11-15T06:01:38;10.90;;;8.20;;
11837;SDS011;5978;51.020;6.764;2022-11-15T06:04:04;13.43;;;8.10;;
11837;SDS011;5978;51.020;6.764;2022-11-15T06:06:30;11.27;;;7.17;;
11837;SDS011;5978;51.020;6.764;2022-11-15T06:08:55;10.73;;;7.63;;
11837;SDS011;5978;51.020;6.764;2022-11-15T06:11:21;10.63;;;8.07;;
11837;SDS011;5978;51.020;6.764;2022-11-15T06:13:47;11.07;;;7.90;;
11837;SDS011;5978;51.020;6.764;2022-11-15T06:16:12;11.57;;;7.13;;
11837;SDS011;5978;51.020;6.764;2022-11-15T06:18:38;11.20;;;7.87;;
11837;SDS011;5978;51.020;6.764;2022-11-15T06:21:04;11.10;;;7.63;;
11837;SDS011;5978;51.020;6.764;2022-11-15T06:23:33;10.73;;;7.87;;
11837;SDS011;5978;51.020;6.764;2022-11-15T06:26:00;10.70;;;7.60;;
11837;SDS011;5978;51.020;6.764;2022-11-15T06:28:30;8.27;;;7.43;;
11837;SDS011;5978;51.020;6.764;2022-11-15T06:31:01;9.43;;;7.57;;
11837;SDS011;5978;51.020;6.764;2022-11-15T06:33:28;10.07;;;7.90;;
11837;SDS011;5978;51.020;6.764;2022-11-15T06:35:53;10.10;;;7.43;;
11837;SDS011;5978;51.020;6.764;2022-11-15T06:38:19;13.30;;;7.40;;
11837;SDS011;5978;51.020;6.764;2022-11-15T06:40:44;8.37;;;7.47;;
11837;SDS011;5978;51.020;6.764;2022-11-15T06:43:10;11.40;;;7.37;;
11837;SDS011;5978;51.020;6.764;2022-11-15T06:45:35;10.03;;;7.50;;
11837;SDS011;5978;51.020;6.764;2022-11-15T06:48:02;9.90;;;7.53;;
11837;SDS011;5978;51.020;6.764;2022-11-15T06:50:27;11.27;;;7.70;;
11837;SDS011;5978;51.020;6.764;2022-11-15T06:52:53;11.77;;;8.53;;
11837;SDS011;5978;51.020;6.764;2022-11-15T06:55:19;9.53;;;7.60;;
11837;SDS011;5978;51.020;6.764;2022-11-15T06:57:49;9.10;;;7.53;;
11837;SDS011;5978;51.020;6.764;2022-11-15T07:00:16;11.47;;;8.20;;
11837;SDS011;5978;51.020;6.764;2022-11-15T07:02:46;8.70;;;7.03;;
11837;SDS011;5978;51.020;6.764;2022-11-15T07:05:12;9.27;;;7.27;;
11837;SDS011;5978;51.020;6.764;2022-11-15T07:07:38;10.93;;;7.55;;
11837;SDS011;5978;51.020;6.764;2022-11-15T07:10:04;9.97;;;7.40;;
11837;SDS011;5978;51.020;6.764;2022-11-15T07:12:31;8.02;;;6.85;;
11837;SDS011;5978;51.020;6.764;2022-11-15T07:14:56;9.10;;;6.10;;
11837;SDS011;5978;51.020;6.764;2022-11-15T07:17:22;8.30;;;7.07;;
11837;SDS011;5978;51.020;6.764;2022-11-15T07:19:47;8.20;;;6.33;;
11837;SDS011;5978;51.020;6.764;2022-11-15T07:22:13;10.40;;;6.80;;
11837;SDS011;5978;51.020;6.764;2022-11-15T07:24:39;9.00;;;6.27;;
11837;SDS011;5978;51.020;6.764;2022-11-15T07:27:04;6.97;;;6.07;;
11837;SDS011;5978;51.020;6.764;2022-11-15T07:29:30;7.53;;;5.57;;
11837;SDS011;5978;51.020;6.764;2022-11-15T07:31:55;8.07;;;5.87;;
11837;SDS011;5978;51.020;6.764;2022-11-15T07:34:21;7.00;;;5.73;;
11837;SDS011;5978;51.020;6.764;2022-11-15T07:36:56;8.60;;;5.67;;
11837;SDS011;5978;51.020;6.764;2022-11-15T07:39:21;9.53;;;5.67;;
11837;SDS011;5978;51.020;6.764;2022-11-15T07:41:47;6.03;;;4.53;;
11837;SDS011;5978;51.020;6.764;2022-11-15T07:44:14;6.80;;;5.00;;
11837;SDS011;5978;51.020;6.764;2022-11-15T07:46:39;9.03;;;6.73;;
11837;SDS011;5978;51.020;6.764;2022-11-15T07:49:05;8.73;;;5.37;;
11837;SDS011;5978;51.020;6.764;2022-11-15T07:51:31;7.90;;;5.27;;
11837;SDS011;5978;51.020;6.764;2022-11-15T07:53:56;5.93;;;5.43;;
11837;SDS011;5978;51.020;6.764;2022-11-15T07:56:22;5.00;;;4.20;;
11837;SDS011;5978;51.020;6.764;2022-11-15T07:58:47;5.37;;;4.70;;
11837;SDS011;5978;51.020;6.764;2022-11-15T08:01:13;5.10;;;4.57;;
11837;SDS011;5978;51.020;6.764;2022-11-15T08:03:39;9.63;;;4.10;;
11837;SDS011;5978;51.020;6.764;2022-11-15T08:06:04;9.90;;;4.37;;
11837;SDS011;5978;51.020;6.764;2022-11-15T08:08:30;6.53;;;5.20;;
11837;SDS011;5978;51.020;6.764;2022-11-15T08:10:59;6.00;;;5.00;;
11837;SDS011;5978;51.020;6.764;2022-11-15T08:13:24;9.80;;;5.13;;
11837;SDS011;5978;51.020;6.764;2022-11-15T08:15:50;4.83;;;4.20;;
11837;SDS011;5978;51.020;6.764;2022-11-15T08:18:16;5.73;;;4.20;;
11837;SDS011;5978;51.020;6.764;2022-11-15T08:20:42;5.90;;;5.20;;
11837;SDS011;5978;51.020;6.764;2022-11-15T08:23:09;6.30;;;4.43;;
11837;SDS011;5978;51.020;6.764;2022-11-15T08:25:36;8.60;;;4.70;;
11837;SDS011;5978;51.020;6.764;2022-11-15T08:28:04;4.20;;;3.80;;
11837;SDS011;5978;51.020;6.764;2022-11-15T08:30:34;6.47;;;4.40;;
11837;SDS011;5978;51.020;6.764;2022-11-15T08:33:09;6.20;;;4.50;;
11837;SDS011;5978;51.020;6.764;2022-11-15T08:35:36;4.37;;;3.97;;
11837;SDS011;5978;51.020;6.764;2022-11-15T08:38:02;3.17;;;2.87;;
11837;SDS011;5978;51.020;6.764;2022-11-15T08:40:28;6.77;;;4.50;;
11837;SDS011;5978;51.020;6.764;2022-11-15T08:42:53;7.13;;;4.10;;
11837;SDS011;5978;51.020;6.764;2022-11-15T08:45:19;4.57;;;3.40;;
11837;SDS011;5978;51.020;6.764;2022-11-15T08:47:44;11.60;;;3.70;;
11837;SDS011;5978;51.020;6.764;2022-11-15T08:50:10;5.63;;;5.13;;
11837;SDS011;5978;51.020;6.764;2022-11-15T08:52:35;6.73;;;3.67;;
11837;SDS011;5978;51.020;6.764;2022-11-15T08:55:01;7.30;;;3.90;;
11837;SDS011;5978;51.020;6.764;2022-11-15T08:57:30;5.17;;;4.03;;
11837;SDS011;5978;51.020;6.764;2022-11-15T08:59:55;8.77;;;3.40;;
11837;SDS011;5978;51.020;6.764;2022-11-15T09:02:22;6.73;;;3.63;;
11837;SDS011;5978;51.020;6.764;2022-11-15T09:04:47;8.73;;;3.00;;
11837;SDS011;5978;51.020;6.764;2022-11-15T09:07:13;7.00;;;3.13;;
11837;SDS011;5978;51.020;6.764;2022-11-15T09:09:39;7.93;;;3.60;;
11837;SDS011;5978;51.020;6.764;2022-11-15T09:12:05;3.93;;;3.57;;
11837;SDS011;5978;51.020;6.764;2022-11-15T09:14:32;3.43;;;2.33;;
11837;SDS011;5978;51.020;6.764;2022-11-15T09:16:58;3.10;;;2.70;;
11837;SDS011;5978;51.020;6.764;2022-11-15T09:19:24;3.10;;;2.23;;
11837;SDS011;5978;51.020;6.764;2022-11-15T09:21:50;2.60;;;2.30;;
11837;SDS011;5978;51.020;6.764;2022-11-15T09:24:15;3.83;;;3.03;;
11837;SDS011;5978;51.020;6.764;2022-11-15T09:26:42;4.83;;;3.43;;
11837;SDS011;5978;51.020;6.764;2022-11-15T09:29:08;5.40;;;2.70;;
11837;SDS011;5978;51.020;6.764;2022-11-15T09:31:33;2.93;;;2.73;;
11837;SDS011;5978;51.020;6.764;2022-11-15T09:33:59;3.70;;;3.30;;
11837;SDS011;5978;51.020;6.764;2022-11-15T09:36:25;3.47;;;2.73;;
11837;SDS011;5978;51.020;6.764;2022-11-15T09:38:50;4.23;;;2.73;;
11837;SDS011;5978;51.020;6.764;2022-11-15T09:47:38;4.83;;;3.10;;
11837;SDS011;5978;51.020;6.764;2022-11-15T09:50:32;3.70;;;2.83;;
11837;SDS011;5978;51.020;6.764;2022-11-15T09:53:02;3.20;;;2.20;;
11837;SDS011;5978;51.020;6.764;2022-11-15T09:55:34;1.90;;;1.70;;
11837;SDS011;5978;51.020;6.764;2022-11-15T10:01:44;3.77;;;1.90;;
11837;SDS011;5978;51.020;6.764;2022-11-15T10:04:12;1.90;;;1.47;;
11837;SDS011;5978;51.020;6.764;2022-11-15T10:06:40;3.20;;;1.47;;
11837;SDS011;5978;51.020;6.764;2022-11-15T10:09:19;2.63;;;1.40;;
11837;SDS011;5978;51.020;6.764;2022-11-15T10:11:51;8.27;;;2.00;;
11837;SDS011;5978;51.020;6.764;2022-11-15T10:14:18;3.47;;;2.00;;
11837;SDS011;5978;51.020;6.764;2022-11-15T10:19:43;1.50;;;1.40;;
11837;SDS011;5978;51.020;6.764;2022-11-15T10:22:34;1.70;;;1.33;;
11837;SDS011;5978;51.020;6.764;2022-11-15T10:27:34;2.93;;;1.23;;
11837;SDS011;5978;51.020;6.764;2022-11-15T10:30:00;2.30;;;1.17;;
11837;SDS011;5978;51.020;6.764;2022-11-15T10:32:26;2.00;;;1.20;;
11837;SDS011;5978;51.020;6.764;2022-11-15T10:34:52;2.30;;;1.17;;
11837;SDS011;5978;51.020;6.764;2022-11-15T10:37:27;4.50;;;1.17;;
11837;SDS011;5978;51.020;6.764;2022-11-15T10:40:14;1.83;;;0.93;;
11837;SDS011;5978;51.020;6.764;2022-11-15T10:42:46;3.67;;;1.03;;
11837;SDS011;5978;51.020;6.764;2022-11-15T10:45:33;1.40;;;0.90;;
11837;SDS011;5978;51.020;6.764;2022-11-15T10:55:37;3.37;;;0.90;;
11837;SDS011;5978;51.020;6.764;2022-11-15T10:58:19;7.80;;;1.10;;
11837;SDS011;5978;51.020;6.764;2022-11-15T11:00:52;3.00;;;1.30;;
11837;SDS011;5978;51.020;6.764;2022-11-15T11:03:29;1.30;;;0.80;;
11837;SDS011;5978;51.020;6.764;2022-11-15T11:06:06;1.30;;;0.80;;
11837;SDS011;5978;51.020;6.764;2022-11-15T11:11:24;4.50;;;0.80;;
11837;SDS011;5978;51.020;6.764;2022-11-15T11:14:27;1.73;;;1.07;;
11837;SDS011;5978;51.020;6.764;2022-11-15T11:27:25;4.47;;;1.10;;
11837;SDS011;5978;51.020;6.764;2022-11-15T11:35:29;4.20;;;0.80;;
11837;SDS011;5978;51.020;6.764;2022-11-15T11:40:56;3.73;;;1.00;;
11837;SDS011;5978;51.020;6.764;2022-11-15T11:43:40;2.90;;;1.07;;
11837;SDS011;5978;51.020;6.764;2022-11-15T11:46:14;1.87;;;0.93;;
11837;SDS011;5978;51.020;6.764;2022-11-15T11:49:12;1.93;;;1.00;;
11837;SDS011;5978;51.020;6.764;2022-11-15T11:51:45;1.97;;;1.00;;
11837;SDS011;5978;51.020;6.764;2022-11-15T11:57:02;5.13;;;1.50;;
11837;SDS011;5978;51.020;6.764;2022-11-15T11:59:36;1.90;;;1.10;;
11837;SDS011;5978;51.020;6.764;2022-11-15T12:02:14;1.20;;;1.00;;
11837;SDS011;5978;51.020;6.764;2022-11-15T12:04:48;1.23;;;0.83;;
11837;SDS011;5978;51.020;6.764;2022-11-15T12:07:27;5.73;;;1.10;;
11837;SDS011;5978;51.020;6.764;2022-11-15T12:10:17;3.43;;;0.90;;
11837;SDS011;5978;51.020;6.764;2022-11-15T12:13:02;1.10;;;0.87;;
11837;SDS011;5978;51.020;6.764;2022-11-15T12:15:50;2.13;;;1.10;;
11837;SDS011;5978;51.020;6.764;2022-11-15T12:18:37;1.20;;;1.00;;
11837;SDS011;5978;51.020;6.764;2022-11-15T12:21:05;5.70;;;1.10;;
11837;SDS011;5978;51.020;6.764;2022-11-15T12:23:50;2.70;;;1.10;;
11837;SDS011;5978;51.020;6.764;2022-11-15T12:26:21;3.70;;;1.43;;
11837;SDS011;5978;51.020;6.764;2022-11-15T12:28:52;2.63;;;1.23;;
11837;SDS011;5978;51.020;6.764;2022-11-15T12:34:01;2.90;;;1.53;;
11837;SDS011;5978;51.020;6.764;2022-11-15T12:36:38;1.50;;;0.87;;
11837;SDS011;5978;51.020;6.764;2022-11-15T12:39:07;1.63;;;1.10;;
11837;SDS011;5978;51.020;6.764;2022-11-15T12:41:35;2.30;;;1.33;;
11837;SDS011;5978;51.020;6.764;2022-11-15T12:44:02;3.30;;;1.30;;
11837;SDS011;5978;51.020;6.764;2022-11-15T13:02:18;1.30;;;1.07;;
11837;SDS011;5978;51.020;6.764;2022-11-15T13:04:46;2.40;;;1.30;;
11837;SDS011;5978;51.020;6.764;2022-11-15T13:09:59;4.60;;;1.53;;
11837;SDS011;5978;51.020;6.764;2022-11-15T13:17:37;1.70;;;1.10;;
11837;SDS011;5978;51.020;6.764;2022-11-15T13:28:01;4.00;;;1.10;;
11837;SDS011;5978;51.020;6.764;2022-11-15T13:30:34;8.63;;;1.60;;
11837;SDS011;5978;51.020;6.764;2022-11-15T13:33:05;5.23;;;1.93;;
11837;SDS011;5978;51.020;6.764;2022-11-15T13:35:36;1.60;;;1.50;;
11837;SDS011;5978;51.020;6.764;2022-11-15T13:38:05;1.90;;;1.50;;
11837;SDS011;5978;51.020;6.764;2022-11-15T13:40:35;4.17;;;1.30;;
11837;SDS011;5978;51.020;6.764;2022-11-15T13:48:38;2.43;;;1.70;;
11837;SDS011;5978;51.020;6.764;2022-11-15T13:51:06;3.43;;;1.70;;
11837;SDS011;5978;51.020;6.764;2022-11-15T13:53:58;3.27;;;1.70;;
11837;SDS011;5978;51.020;6.764;2022-11-15T13:56:37;7.70;;;2.33;;
11837;SDS011;5978;51.020;6.764;2022-11-15T13:59:16;3.67;;;1.97;;
11837;SDS011;5978;51.020;6.764;2022-11-15T14:01:49;2.20;;;1.90;;
11837;SDS011;5978;51.020;6.764;2022-11-15T14:04:17;2.90;;;2.03;;
11837;SDS011;5978;51.020;6.764;2022-11-15T14:06:46;3.00;;;2.13;;
11837;SDS011;5978;51.020;6.764;2022-11-15T14:09:34;3.27;;;2.30;;
11837;SDS011;5978;51.020;6.764;2022-11-15T14:12:02;2.73;;;2.30;;
11837;SDS011;5978;51.020;6.764;2022-11-15T14:14:46;2.67;;;2.40;;
11837;SDS011;5978;51.020;6.764;2022-11-15T14:19:53;7.40;;;2.90;;
11837;SDS011;5978;51.020;6.764;2022-11-15T14:22:22;2.90;;;2.43;;
11837;SDS011;5978;51.020;6.764;2022-11-15T14:27:40;3.40;;;2.73;;
11837;SDS011;5978;51.020;6.764;2022-11-15T14:30:16;5.77;;;3.10;;
11837;SDS011;5978;51.020;6.764;2022-11-15T14:32:46;3.07;;;2.87;;
11837;SDS011;5978;51.020;6.764;2022-11-15T14:35:17;3.77;;;2.93;;
11837;SDS011;5978;51.020;6.764;2022-11-15T14:37:45;3.13;;;2.77;;
11837;SDS011;5978;51.020;6.764;2022-11-15T14:40:17;4.40;;;3.37;;
11837;SDS011;5978;51.020;6.764;2022-11-15T14:42:45;3.40;;;3.10;;
11837;SDS011;5978;51.020;6.764;2022-11-15T14:45:12;5.07;;;3.07;;
11837;SDS011;5978;51.020;6.764;2022-11-15T14:47:43;3.00;;;2.70;;
11837;SDS011;5978;51.020;6.764;2022-11-15T14:50:13;5.73;;;2.70;;
11837;SDS011;5978;51.020;6.764;2022-11-15T14:52:39;4.70;;;3.10;;
11837;SDS011;5978;51.020;6.764;2022-11-15T14:55:26;3.10;;;2.80;;
11837;SDS011;5978;51.020;6.764;2022-11-15T14:57:59;7.57;;;3.30;;
11837;SDS011;5978;51.020;6.764;2022-11-15T15:00:27;3.27;;;2.63;;
11837;SDS011;5978;51.020;6.764;2022-11-15T15:02:54;5.40;;;2.87;;
11837;SDS011;5978;51.020;6.764;2022-11-15T15:05:31;3.50;;;3.20;;
11837;SDS011;5978;51.020;6.764;2022-11-15T15:07:58;3.37;;;2.60;;
11837;SDS011;5978;51.020;6.764;2022-11-15T15:10:24;2.77;;;2.47;;
11837;SDS011;5978;51.020;6.764;2022-11-15T15:12:52;3.33;;;2.97;;
11837;SDS011;5978;51.020;6.764;2022-11-15T15:15:21;5.47;;;3.30;;
11837;SDS011;5978;51.020;6.764;2022-11-15T15:17:49;2.57;;;2.37;;
11837;SDS011;5978;51.020;6.764;2022-11-15T15:20:14;4.57;;;3.10;;
11837;SDS011;5978;51.020;6.764;2022-11-15T15:22:40;6.63;;;3.40;;
11837;SDS011;5978;51.020;6.764;2022-11-15T15:25:23;3.67;;;3.10;;
11837;SDS011;5978;51.020;6.764;2022-11-15T15:27:53;4.30;;;2.97;;
11837;SDS011;5978;51.020;6.764;2022-11-15T15:30:20;3.37;;;3.00;;
11837;SDS011;5978;51.020;6.764;2022-11-15T15:32:46;3.03;;;2.73;;
11837;SDS011;5978;51.020;6.764;2022-11-15T15:35:13;3.30;;;2.83;;
11837;SDS011;5978;51.020;6.764;2022-11-15T15:37:39;9.90;;;3.10;;
11837;SDS011;5978;51.020;6.764;2022-11-15T15:40:24;5.70;;;3.13;;
11837;SDS011;5978;51.020;6.764;2022-11-15T15:42:52;3.73;;;2.73;;
11837;SDS011;5978;51.020;6.764;2022-11-15T15:45:18;4.60;;;2.70;;
11837;SDS011;5978;51.020;6.764;2022-11-15T15:47:53;3.40;;;3.10;;
11837;SDS011;5978;51.020;6.764;2022-11-15T15:52:57;3.80;;;2.50;;
11837;SDS011;5978;51.020;6.764;2022-11-15T15:55:24;2.70;;;2.20;;
11837;SDS011;5978;51.020;6.764;2022-11-15T15:57:50;3.00;;;2.70;;
11837;SDS011;5978;51.020;6.764;2022-11-15T16:00:16;2.87;;;2.63;;
11837;SDS011;5978;51.020;6.764;2022-11-15T16:02:42;3.20;;;2.90;;
11837;SDS011;5978;51.020;6.764;2022-11-15T16:05:08;3.57;;;2.30;;
11837;SDS011;5978;51.020;6.764;2022-11-15T16:07:35;4.43;;;2.50;;
11837;SDS011;5978;51.020;6.764;2022-11-15T16:10:02;3.20;;;2.83;;
11837;SDS011;5978;51.020;6.764;2022-11-15T16:12:40;3.13;;;2.83;;
11837;SDS011;5978;51.020;6.764;2022-11-15T16:15:05;3.63;;;3.13;;
11837;SDS011;5978;51.020;6.764;2022-11-15T16:17:33;3.80;;;3.40;;
11837;SDS011;5978;51.020;6.764;2022-11-15T16:20:02;1.77;;;1.60;;
11837;SDS011;5978;51.020;6.764;2022-11-15T16:22:28;5.83;;;2.43;;
11837;SDS011;5978;51.020;6.764;2022-11-15T16:24:55;2.20;;;2.00;;
11837;SDS011;5978;51.020;6.764;2022-11-15T16:27:21;4.33;;;2.27;;
11837;SDS011;5978;51.020;6.764;2022-11-15T16:29:47;4.63;;;2.33;;
11837;SDS011;5978;51.020;6.764;2022-11-15T16:32:13;3.20;;;2.60;;
11837;SDS011;5978;51.020;6.764;2022-11-15T16:34:39;7.10;;;2.87;;
11837;SDS011;5978;51.020;6.764;2022-11-15T16:37:04;3.30;;;2.57;;
11837;SDS011;5978;51.020;6.764;2022-11-15T16:39:31;4.50;;;2.90;;
11837;SDS011;5978;51.020;6.764;2022-11-15T16:41:57;2.33;;;2.13;;
11837;SDS011;5978;51.020;6.764;2022-11-15T16:44:24;3.00;;;1.90;;
11837;SDS011;5978;51.020;6.764;2022-11-15T16:46:50;2.97;;;2.77;;
11837;SDS011;5978;51.020;6.764;2022-11-15T16:49:16;2.57;;;2.37;;
11837;SDS011;5978;51.020;6.764;2022-11-15T16:51:42;3.03;;;2.47;;
11837;SDS011;5978;51.020;6.764;2022-11-15T16:54:10;4.00;;;2.87;;
11837;SDS011;5978;51.020;6.764;2022-11-15T16:56:37;2.60;;;2.40;;
11837;SDS011;5978;51.020;6.764;2022-11-15T16:59:03;3.30;;;3.00;;
11837;SDS011;5978;51.020;6.764;2022-11-15T17:01:30;2.90;;;2.37;;
11837;SDS011;5978;51.020;6.764;2022-11-15T17:03:58;3.43;;;3.13;;
11837;SDS011;5978;51.020;6.764;2022-11-15T17:06:24;3.27;;;2.70;;
11837;SDS011;5978;51.020;6.764;2022-11-15T17:08:50;2.70;;;2.50;;
11837;SDS011;5978;51.020;6.764;2022-11-15T17:11:17;4.40;;;2.50;;
11837;SDS011;5978;51.020;6.764;2022-11-15T17:13:45;3.90;;;2.60;;
11837;SDS011;5978;51.020;6.764;2022-11-15T17:16:12;3.60;;;2.20;;
11837;SDS011;5978;51.020;6.764;2022-11-15T17:18:42;3.27;;;2.80;;
11837;SDS011;5978;51.020;6.764;2022-11-15T17:21:15;3.03;;;2.73;;
11837;SDS011;5978;51.020;6.764;2022-11-15T17:23:42;2.50;;;2.30;;
11837;SDS011;5978;51.020;6.764;2022-11-15T17:26:09;2.50;;;2.00;;